mercredi 26 mars 2014

ALERTE SPOTTING 26/03/14

320 EC-JZQ Vueling (stickers Thanks)
   VY8010/VY8011  07h45/08h30

320 F-GHQE Air Corsica (blanc avec titre??)
   XK4501/XK4500  08h30/09h25
  XK4505/XK4504   19H55/21h00

Manque les prévisions/immats UX / DY / BE / certains IB / AZ / TP / BA / AH
*** Heures en Local Time **
Prévisions matinales soumises à modifications de dernières minute. Voir le log du mois pour la version 'définitive' de la journée: http://www.airkalo.com/ORLYAVIATION/Logdumois.html

le TAF de la journée:



METAR: LFPO 260400Z 36005KT CAVOK 02/M01 Q1011 NOSIG=
TAF LONG: LFPO 252300Z 2600/2706 36005KT CAVOK BECMG 2610/2612 SCT030 TEMPO
2611/2618 36010KT 7000 SHRA BKN025TCU PROB30 TEMPO 2615/2618
36010G20KT 4000 SHRA SCT030CB BECMG 2619/2621 CAVOK TEMPO 2703/2706
VRB03KT 0800 BCFG=